Time;durP1;ratioP1;P1;durP2;ratioP2;P2;SDS_P1;SDS_P2;PMS_P1;PMS_P2;Temp;Humidity;BMP_temperature;BMP_pressure;BME280_temperature;BME280_humidity;BME280_pressure;Samples;Min_cycle;Max_cycle;Signal;HPM_P1;HPM_P2
2023/08/09 00:00:43;;;;;;;;;1.00;1.00;;;;;19.57;90.03;101435.19;5089886;27;45475;-76
2023/08/09 00:03:08;;;;;;;;;1.67;1.67;;;;;19.58;89.59;101435.09;5067113;28;45452;-76
2023/08/09 00:05:34;;;;;;;;;2.00;2.00;;;;;19.55;91.47;101429.09;5091928;27;45435;-76
2023/08/09 00:07:59;;;;;;;;;2.67;2.67;;;;;19.56;90.00;101420.09;5088535;27;45442;-76
2023/08/09 00:10:25;;;;;;;;;4.00;2.00;;;;;19.52;91.90;101430.19;5099205;27;45355;-75
2023/08/09 00:12:51;;;;;;;;;1.00;1.00;;;;;19.51;92.52;101427.63;5083430;27;45434;-76
2023/08/09 00:15:16;;;;;;;;;1.67;1.67;;;;;19.47;92.83;101437.72;5083132;27;45585;-75
2023/08/09 00:17:41;;;;;;;;;1.67;1.67;;;;;19.43;92.34;101435.41;5089008;27;45586;-75
2023/08/09 00:20:08;;;;;;;;;3.33;2.33;;;;;19.32;93.38;101432.59;5095807;27;50511;-75
2023/08/09 00:22:34;;;;;;;;;5.00;2.00;;;;;19.37;92.16;101443.88;5081722;27;45438;-75
2023/08/09 00:24:59;;;;;;;;;2.67;2.67;;;;;19.33;94.22;101437.00;5075650;28;45467;-73
2023/08/09 00:27:25;;;;;;;;;2.00;2.00;;;;;19.32;94.43;101448.69;5085580;27;45341;-75
2023/08/09 00:29:51;;;;;;;;;3.00;2.67;;;;;19.23;94.19;101437.69;5082389;27;46067;-76
2023/08/09 00:32:16;;;;;;;;;2.00;2.00;;;;;19.19;94.05;101438.88;5073227;27;45245;-73
2023/08/09 00:34:41;;;;;;;;;3.33;2.33;;;;;19.19;94.42;101452.28;5087796;27;45438;-73
2023/08/09 00:37:07;;;;;;;;;3.00;3.00;;;;;19.12;94.42;101442.97;5074540;27;45484;-75
2023/08/09 00:39:32;;;;;;;;;1.67;1.67;;;;;19.12;95.49;101456.38;5099382;27;45754;-76
2023/08/09 00:41:58;;;;;;;;;1.67;1.67;;;;;19.09;96.60;101448.56;5082702;27;45455;-75
2023/08/09 00:44:23;;;;;;;;;2.33;2.33;;;;;19.08;92.68;101443.28;5086498;27;45475;-76
2023/08/09 00:46:49;;;;;;;;;4.67;2.00;;;;;19.11;93.56;101438.56;5085955;27;46404;-74
2023/08/09 00:49:16;;;;;;;;;1.67;1.67;;;;;19.21;92.11;101430.69;5069871;27;45478;-73
2023/08/09 00:51:41;;;;;;;;;4.33;2.33;;;;;19.25;92.17;101432.19;5085513;27;45312;-73
2023/08/09 00:54:06;;;;;;;;;1.33;1.33;;;;;19.22;90.51;101414.50;5091675;27;45515;-73
2023/08/09 00:56:32;;;;;;;;;2.33;2.33;;;;;19.29;89.98;101424.78;5096764;27;45633;-75
2023/08/09 00:58:57;;;;;;;;;1.67;1.00;;;;;19.35;91.37;101438.59;5093032;27;45597;-76
2023/08/09 01:01:22;;;;;;;;;1.67;1.67;;;;;19.36;89.42;101436.78;5098958;27;45342;-75
2023/08/09 01:03:48;;;;;;;;;2.33;2.33;;;;;19.44;89.49;101434.41;5088256;27;45391;-75
2023/08/09 01:06:55;;;;;;;;;2.00;2.00;;;;;19.45;89.10;101442.34;5092972;27;45482;-75
2023/08/09 01:09:33;;;;;;;;;4.33;2.67;;;;;19.49;89.00;101440.31;5071936;27;46271;-76
2023/08/09 01:12:07;;;;;;;;;2.67;1.67;;;;;19.50;90.39;101442.03;5088817;27;45254;-76
2023/08/09 01:14:33;;;;;;;;;2.67;1.67;;;;;19.43;89.75;101420.16;5099880;27;45295;-74
2023/08/09 01:17:01;;;;;;;;;2.33;2.33;;;;;19.45;88.96;101442.34;5088881;27;45321;-73
2023/08/09 01:19:38;;;;;;;;;2.33;1.67;;;;;19.41;89.60;101440.00;5093107;27;45398;-73
2023/08/09 01:22:16;;;;;;;;;2.00;2.00;;;;;19.50;89.10;101453.59;5089585;27;44791;-76
2023/08/09 01:24:44;;;;;;;;;2.00;2.00;;;;;19.46;88.80;101446.75;5093591;27;45324;-76
2023/08/09 01:27:09;;;;;;;;;3.67;2.33;;;;;19.51;89.99;101447.25;5095129;27;45471;-75
2023/08/09 01:29:36;;;;;;;;;1.33;1.33;;;;;19.51;90.37;101454.44;5092674;27;46307;-76
2023/08/09 01:32:01;;;;;;;;;2.33;1.67;;;;;19.51;90.48;101451.75;5088852;27;45562;-75
2023/08/09 01:34:27;;;;;;;;;1.67;1.67;;;;;19.45;90.29;101441.50;5097856;27;45334;-75
2023/08/09 01:36:56;;;;;;;;;1.33;1.33;;;;;19.43;90.75;101438.94;5078859;28;45396;-75
2023/08/09 01:39:25;;;;;;;;;2.33;2.00;;;;;19.52;91.05;101453.50;5077912;28;48243;-76
2023/08/09 01:41:51;;;;;;;;;1.67;1.67;;;;;19.47;91.45;101447.63;5074940;27;45358;-76
2023/08/09 01:44:16;;;;;;;;;1.33;1.33;;;;;19.51;90.83;101458.00;5088293;27;45409;-74
2023/08/09 01:46:43;;;;;;;;;1.33;1.33;;;;;19.49;91.28;101453.72;5089474;27;45490;-73
2023/08/09 01:49:21;;;;;;;;;2.00;2.00;;;;;19.47;91.13;101453.81;5087658;27;45400;-73
2023/08/09 01:51:47;;;;;;;;;1.67;1.67;;;;;19.52;90.84;101465.09;5080733;27;45240;-73
2023/08/09 01:54:13;;;;;;;;;1.67;1.67;;;;;19.47;92.11;101453.81;5081595;27;45339;-73
2023/08/09 01:56:39;;;;;;;;;1.67;0.67;;;;;19.32;91.67;101420.06;5090990;27;45475;-76
2023/08/09 01:59:05;;;;;;;;;2.00;2.00;;;;;19.50;91.16;101452.75;5086357;27;45413;-73
2023/08/09 02:01:31;;;;;;;;;2.00;1.67;;;;;19.46;92.12;101445.91;5093162;27;45482;-76
2023/08/09 02:03:56;;;;;;;;;1.67;1.67;;;;;19.52;91.95;101456.16;5087972;27;45430;-75
2023/08/09 02:06:21;;;;;;;;;3.50;2.50;;;;;19.49;92.11;101451.91;5092998;27;45558;-73
2023/08/09 02:08:47;;;;;;;;;2.00;2.00;;;;;19.45;92.71;101441.50;5087802;27;45435;-73
2023/08/09 02:11:12;;;;;;;;;1.67;1.67;;;;;19.54;92.79;101454.22;5098089;27;45348;-73
2023/08/09 02:13:39;;;;;;;;;1.67;1.67;;;;;19.47;93.23;101444.94;5077284;28;45366;-75
2023/08/09 02:16:05;;;;;;;;;3.33;3.00;;;;;19.39;93.08;101439.22;5070816;27;45437;-73
2023/08/09 02:18:32;;;;;;;;;2.00;1.67;;;;;19.53;92.43;101458.75;5088693;27;46188;-75
2023/08/09 02:20:59;;;;;;;;;1.67;1.67;;;;;19.51;92.95;101451.75;5081042;27;45367;-74
2023/08/09 02:23:25;;;;;;;;;3.00;2.00;;;;;19.53;94.12;101448.03;5096674;27;45494;-75
2023/08/09 02:25:53;;;;;;;;;1.00;1.00;;;;;19.47;94.57;101436.88;5098186;27;45387;-73
2023/08/09 02:28:18;;;;;;;;;1.33;1.33;;;;;19.47;93.39;101431.53;5087851;27;46132;-75
2023/08/09 02:30:45;;;;;;;;;2.33;1.33;;;;;19.46;94.45;101452.13;5089870;27;45409;-75
2023/08/09 02:33:11;;;;;;;;;1.67;1.67;;;;;19.43;96.25;101449.66;5098775;27;45508;-75
2023/08/09 02:35:53;;;;;;;;;1.00;1.00;;;;;19.39;95.65;101448.16;5081773;27;45388;-73
2023/08/09 02:38:19;;;;;;;;;2.33;1.00;;;;;19.24;95.74;101435.84;5078675;27;48110;-75
2023/08/09 02:40:44;;;;;;;;;1.67;1.67;;;;;19.25;95.58;101451.84;5094488;27;45351;-75
2023/08/09 02:43:10;;;;;;;;;1.67;1.67;;;;;19.20;95.81;101445.97;5092532;27;45392;-75
2023/08/09 02:45:35;;;;;;;;;0.67;0.67;;;;;19.18;95.84;101447.00;5097958;27;45391;-75
2023/08/09 02:48:01;;;;;;;;;1.00;1.00;;;;;19.17;97.41;101461.41;5092503;27;45490;-73
2023/08/09 02:50:26;;;;;;;;;1.67;0.67;;;;;19.15;96.79;101463.34;5080088;27;45363;-75
2023/08/09 02:52:51;;;;;;;;;1.33;1.33;;;;;19.12;97.77;101461.72;5085286;27;45440;-75
2023/08/09 02:55:17;;;;;;;;;0.67;0.67;;;;;19.02;98.13;101446.41;5088854;27;49038;-75
2023/08/09 02:57:42;;;;;;;;;4.67;0.67;;;;;19.07;98.51;101458.53;5080543;27;46074;-75
2023/08/09 03:00:09;;;;;;;;;2.00;2.00;;;;;19.07;98.38;101455.88;5090814;27;45305;-75
2023/08/09 03:02:34;;;;;;;;;0.67;0.67;;;;;19.01;99.17;101445.56;5092760;27;45273;-75
2023/08/09 03:05:00;;;;;;;;;3.33;2.00;;;;;19.03;98.05;101449.00;5081038;27;50546;-75
2023/08/09 03:07:25;;;;;;;;;2.00;2.00;;;;;19.09;99.38;101453.91;5089130;27;45866;-75
2023/08/09 03:09:51;;;;;;;;;0.67;0.67;;;;;19.09;98.95;101448.56;5081191;27;45362;-73
2023/08/09 03:12:16;;;;;;;;;0.67;0.67;;;;;19.10;99.48;101461.00;5085150;27;45406;-75
2023/08/09 03:14:41;;;;;;;;;1.33;1.33;;;;;19.17;99.06;101469.47;5090815;27;45312;-73
2023/08/09 03:17:07;;;;;;;;;1.00;1.00;;;;;19.14;99.30;101467.84;5091944;27;45474;-75
2023/08/09 03:19:32;;;;;;;;;1.33;0.67;;;;;19.21;99.27;101477.16;5102946;27;45328;-75
2023/08/09 03:21:57;;;;;;;;;1.00;0.67;;;;;19.22;99.10;101491.44;5099206;27;45343;-75
2023/08/09 03:24:23;;;;;;;;;0.67;0.67;;;;;19.21;98.72;101481.66;5085638;27;47904;-75
2023/08/09 03:26:48;;;;;;;;;1.67;0.67;;;;;19.17;98.39;101475.66;5080336;27;45400;-75
2023/08/09 03:29:14;;;;;;;;;1.33;0.67;;;;;19.09;98.14;101474.50;5075140;27;45463;-76
2023/08/09 03:31:39;;;;;;;;;0.33;0.33;;;;;19.10;98.88;101474.41;5100474;27;45439;-76
2023/08/09 03:34:04;;;;;;;;;1.00;1.00;;;;;19.21;98.51;101473.59;5102844;27;45283;-75
2023/08/09 03:36:30;;;;;;;;;0.00;0.00;;;;;19.20;98.25;101479.97;5088998;27;46997;-75
2023/08/09 03:38:55;;;;;;;;;0.67;0.67;;;;;19.22;100.00;101475.34;5088683;27;45355;-75
2023/08/09 03:41:21;;;;;;;;;0.67;0.67;;;;;19.19;99.06;101489.84;5093065;27;45412;-76
2023/08/09 03:43:46;;;;;;;;;3.00;1.67;;;;;19.19;100.00;101495.19;5088903;27;45272;-75
2023/08/09 03:46:11;;;;;;;;;0.67;0.67;;;;;19.19;100.00;101480.91;5084773;27;45445;-75
2023/08/09 03:48:37;;;;;;;;;1.67;1.67;;;;;19.15;100.00;101479.41;5080870;27;45424;-75
2023/08/09 03:51:02;;;;;;;;;0.33;0.33;;;;;19.13;100.00;101476.00;5084100;27;45412;-75
2023/08/09 03:53:27;;;;;;;;;3.33;0.67;;;;;19.10;100.00;101485.13;5099115;27;45299;-75
2023/08/09 03:55:53;;;;;;;;;0.33;0.33;;;;;19.17;100.00;101493.59;5098071;27;45375;-75
2023/08/09 03:58:18;;;;;;;;;0.00;0.00;;;;;19.13;100.00;101500.13;5096027;27;45349;-75
2023/08/09 04:00:43;;;;;;;;;1.33;1.33;;;;;19.12;100.00;101498.41;5073471;27;45582;-75
2023/08/09 04:03:09;;;;;;;;;0.67;0.67;;;;;19.08;100.00;101499.59;5081541;27;45477;-75
2023/08/09 04:05:35;;;;;;;;;0.33;0.33;;;;;19.00;100.00;101484.06;5090439;27;53234;-75
2023/08/09 04:08:03;;;;;;;;;1.33;1.33;;;;;19.07;100.00;101493.41;5088433;27;45501;-75
2023/08/09 04:10:28;;;;;;;;;2.00;1.67;;;;;19.08;100.00;101499.59;5083301;27;45320;-75
2023/08/09 04:12:54;;;;;;;;;0.00;0.00;;;;;19.12;100.00;101510.00;5088484;27;45360;-76
2023/08/09 04:15:21;;;;;;;;;1.33;1.33;;;;;19.09;100.00;101510.22;5100796;27;46039;-75
2023/08/09 04:17:48;;;;;;;;;0.67;0.67;;;;;19.02;100.00;101503.59;5095899;27;45295;-75
2023/08/09 04:20:14;;;;;;;;;1.00;0.67;;;;;19.09;100.00;101520.09;5080030;27;45438;-75
2023/08/09 04:22:39;;;;;;;;;1.33;1.33;;;;;19.01;100.00;101512.59;5093862;27;45540;-75
2023/08/09 04:25:05;;;;;;;;;1.33;1.33;;;;;19.10;100.00;101519.13;5079520;28;47092;-75
2023/08/09 04:27:32;;;;;;;;;2.33;1.33;;;;;19.12;100.00;101528.78;5094337;27;45463;-75
2023/08/09 04:30:00;;;;;;;;;1.67;1.67;;;;;19.13;100.00;101527.81;5095681;27;45434;-75
2023/08/09 04:32:25;;;;;;;;;0.67;0.67;;;;;19.06;100.00;101521.16;5076122;27;45383;-75
2023/08/09 04:34:50;;;;;;;;;2.33;2.33;;;;;19.01;100.00;101531.34;5095614;27;45337;-76
2023/08/09 04:37:15;;;;;;;;;3.00;1.33;;;;;19.09;100.00;101528.13;5081193;27;45277;-75
2023/08/09 04:39:41;;;;;;;;;1.67;1.67;;;;;19.07;100.00;101527.41;5077425;28;45338;-76
2023/08/09 04:42:06;;;;;;;;;1.00;1.00;;;;;19.01;100.00;101525.97;5064534;27;52287;-75
2023/08/09 04:44:31;;;;;;;;;0.33;0.33;;;;;19.10;100.00;101538.75;5096987;27;46033;-76
2023/08/09 04:46:58;;;;;;;;;2.67;1.33;;;;;19.12;100.00;101539.50;5087167;27;45589;-75
2023/08/09 04:49:23;;;;;;;;;2.67;1.67;;;;;19.14;100.00;101539.41;5094118;27;45246;-75
2023/08/09 04:51:48;;;;;;;;;2.00;0.67;;;;;19.13;100.00;101541.22;5087763;27;45700;-75
2023/08/09 04:54:14;;;;;;;;;2.00;0.67;;;;;19.12;100.00;101544.88;5096985;27;51797;-75
2023/08/09 04:56:39;;;;;;;;;0.67;0.67;;;;;19.13;100.00;101551.09;5081355;27;45826;-75
2023/08/09 04:59:05;;;;;;;;;1.67;0.67;;;;;19.09;100.00;101550.44;5101075;27;45286;-76
2023/08/09 05:01:30;;;;;;;;;0.67;0.67;;;;;19.06;100.00;101544.44;5084892;27;45354;-75
2023/08/09 05:03:55;;;;;;;;;0.67;0.67;;;;;19.16;100.00;101545.50;5083648;27;46281;-75
2023/08/09 05:06:22;;;;;;;;;0.67;0.67;;;;;19.15;100.00;101543.78;5083429;27;45379;-75
2023/08/09 05:08:47;;;;;;;;;0.33;0.33;;;;;19.17;100.00;101547.22;5077231;27;45388;-75
2023/08/09 05:11:13;;;;;;;;;0.00;0.00;;;;;19.11;100.00;101544.97;5089618;27;45298;-76
2023/08/09 05:13:38;;;;;;;;;0.00;0.00;;;;;19.17;100.00;101557.97;5087819;27;46024;-75
2023/08/09 05:16:03;;;;;;;;;1.33;0.00;;;;;19.17;100.00;101555.28;5091333;27;45563;-76
2023/08/09 05:18:29;;;;;;;;;0.00;0.00;;;;;19.15;100.00;101546.47;5089121;27;45637;-76
2023/08/09 05:20:54;;;;;;;;;0.00;0.00;;;;;19.17;100.00;101558.78;5086117;27;45439;-75
2023/08/09 05:23:20;;;;;;;;;0.00;0.00;;;;;19.16;100.00;101554.41;5094109;27;45448;-75
2023/08/09 05:25:45;;;;;;;;;0.00;0.00;;;;;19.13;100.00;101548.41;5083553;27;45324;-75
2023/08/09 05:28:10;;;;;;;;;0.00;0.00;;;;;19.07;100.00;101530.94;5067496;27;45602;-75
2023/08/09 05:30:36;;;;;;;;;0.00;0.00;;;;;19.19;100.00;101556.88;5094030;27;46277;-75
2023/08/09 05:33:01;;;;;;;;;0.00;0.00;;;;;19.14;100.00;101563.53;5089723;27;45336;-75
2023/08/09 05:35:27;;;;;;;;;0.00;0.00;;;;;19.13;100.00;101567.19;5098687;27;45403;-76
2023/08/09 05:37:53;;;;;;;;;0.00;0.00;;;;;19.12;100.00;101565.44;5099129;27;45383;-76
2023/08/09 05:40:18;;;;;;;;;0.00;0.00;;;;;19.10;100.00;101568.25;5098042;27;45378;-76
2023/08/09 05:42:43;;;;;;;;;0.00;0.00;;;;;19.06;100.00;101574.81;5095564;27;45374;-76
2023/08/09 05:45:09;;;;;;;;;1.00;0.00;;;;;19.08;100.00;101580.03;5089116;27;45369;-76
2023/08/09 05:47:34;;;;;;;;;0.67;0.00;;;;;19.10;100.00;101572.75;5092903;27;45347;-76
2023/08/09 05:50:00;;;;;;;;;0.00;0.00;;;;;19.12;100.00;101565.44;5088092;27;45482;-75
2023/08/09 05:52:26;;;;;;;;;0.67;0.00;;;;;19.17;100.00;101569.53;5086773;27;47182;-76
2023/08/09 05:54:52;;;;;;;;;0.00;0.00;;;;;19.15;100.00;101563.41;5091579;27;45354;-76
2023/08/09 05:57:17;;;;;;;;;0.00;0.00;;;;;19.20;100.00;101568.47;5083311;27;45584;-76
2023/08/09 05:59:43;;;;;;;;;0.67;0.00;;;;;19.21;100.00;101562.13;5095298;27;45396;-76
2023/08/09 06:02:08;;;;;;;;;0.00;0.00;;;;;19.29;100.00;101577.66;5096401;27;45421;-76
2023/08/09 06:04:34;;;;;;;;;0.00;0.00;;;;;19.28;100.00;101568.75;5088933;27;45281;-76
2023/08/09 06:06:59;;;;;;;;;0.00;0.00;;;;;19.20;100.00;101572.00;5095077;27;45448;-75
2023/08/09 06:09:25;;;;;;;;;0.00;0.00;;;;;19.20;100.00;101571.16;5099746;27;45697;-76
2023/08/09 06:11:50;;;;;;;;;0.33;0.33;;;;;19.20;100.00;101569.34;5088783;27;45337;-76
2023/08/09 06:14:16;;;;;;;;;0.00;0.00;;;;;19.17;100.00;101572.19;5091963;27;45457;-76
2023/08/09 06:16:45;;;;;;;;;0.33;0.33;;;;;19.18;100.00;101578.44;5088816;27;45224;-76
2023/08/09 06:19:10;;;;;;;;;0.67;0.67;;;;;19.08;100.00;101570.19;5086518;27;45571;-76
2023/08/09 06:21:36;;;;;;;;;0.00;0.00;;;;;19.15;100.00;101584.88;5087851;27;45511;-76
2023/08/09 06:24:01;;;;;;;;;0.33;0.33;;;;;19.12;100.00;101585.09;5085583;27;45351;-76
2023/08/09 06:26:26;;;;;;;;;0.67;0.67;;;;;19.11;100.00;101591.41;5089230;27;45534;-76
2023/08/09 06:28:52;;;;;;;;;0.00;0.00;;;;;19.05;100.00;101580.25;5087278;27;47046;-76
2023/08/09 06:31:17;;;;;;;;;0.67;0.67;;;;;19.12;100.00;101590.44;5087856;27;46519;-76
2023/08/09 06:33:42;;;;;;;;;3.67;0.67;;;;;19.17;100.00;101606.22;5090077;27;45622;-75
2023/08/09 06:36:09;;;;;;;;;0.67;0.00;;;;;19.19;100.00;101594.44;5068820;27;45509;-76
2023/08/09 06:38:35;;;;;;;;;2.00;0.33;;;;;19.23;100.00;101592.38;5085029;27;45367;-75
2023/08/09 06:41:00;;;;;;;;;2.67;0.33;;;;;19.34;100.00;101605.03;5079749;27;45431;-75
2023/08/09 06:43:26;;;;;;;;;0.00;0.00;;;;;19.38;100.00;101601.16;5070372;27;45491;-76
2023/08/09 06:45:52;;;;;;;;;2.00;0.00;;;;;19.39;100.00;101597.50;5097777;27;45592;-76
2023/08/09 06:48:17;;;;;;;;;3.00;1.00;;;;;19.52;100.00;101619.84;5089854;27;45292;-76
2023/08/09 06:50:43;;;;;;;;;1.00;1.00;;;;;19.55;100.00;101622.31;5088560;27;45392;-76
2023/08/09 06:53:08;;;;;;;;;2.00;0.67;;;;;19.59;100.00;101626.50;5083533;27;45256;-76
2023/08/09 06:55:33;;;;;;;;;1.00;1.00;;;;;19.61;100.00;101630.78;5072766;27;45354;-76
2023/08/09 06:57:59;;;;;;;;;2.00;1.00;;;;;19.61;100.00;101619.19;5086963;27;45466;-76
2023/08/09 07:00:24;;;;;;;;;0.67;0.67;;;;;19.71;100.00;101623.78;5088241;27;45267;-76
2023/08/09 07:02:50;;;;;;;;;2.33;1.00;;;;;19.71;100.00;101617.56;5077619;27;45332;-76
2023/08/09 07:05:18;;;;;;;;;1.33;1.33;;;;;19.77;100.00;101623.34;5090033;27;45321;-76
2023/08/09 07:07:51;;;;;;;;;1.00;1.00;;;;;19.85;100.00;101619.25;5090307;27;45487;-76
2023/08/09 07:10:17;;;;;;;;;0.67;0.67;;;;;19.83;100.00;101613.97;5085923;27;45388;-76
2023/08/09 07:12:43;;;;;;;;;1.67;0.67;;;;;19.88;100.00;101629.75;5083278;28;45497;-76
2023/08/09 07:15:09;;;;;;;;;0.67;0.67;;;;;19.92;100.00;101633.94;5099628;27;45597;-75
2023/08/09 07:17:35;;;;;;;;;0.67;0.67;;;;;19.93;100.00;101649.94;5087579;27;45375;-76
2023/08/09 07:20:02;;;;;;;;;2.67;1.00;;;;;19.95;100.00;101641.78;5083401;27;45993;-76
2023/08/09 07:22:27;;;;;;;;;0.33;0.33;;;;;19.99;100.00;101641.41;5072359;27;45308;-76
2023/08/09 07:24:53;;;;;;;;;1.00;1.00;;;;;20.11;100.00;101642.38;5089815;27;45348;-76
2023/08/09 07:27:18;;;;;;;;;1.00;1.00;;;;;20.20;100.00;101633.63;5091867;27;54619;-76
2023/08/09 07:29:43;;;;;;;;;2.00;1.00;;;;;20.24;97.98;101638.66;5087030;27;45691;-76
2023/08/09 07:32:09;;;;;;;;;0.33;0.33;;;;;20.27;99.96;101643.84;5101055;27;45478;-76
2023/08/09 07:34:34;;;;;;;;;0.33;0.33;;;;;20.33;100.00;101647.88;5084948;27;45862;-76
2023/08/09 07:37:00;;;;;;;;;2.00;2.00;;;;;20.37;100.00;101646.69;5091299;27;45383;-76
2023/08/09 07:39:25;;;;;;;;;0.00;0.00;;;;;20.32;98.32;101632.72;5073806;27;45872;-75
2023/08/09 07:41:51;;;;;;;;;0.67;0.00;;;;;20.47;100.00;101641.50;5082731;27;45358;-76
2023/08/09 07:44:16;;;;;;;;;1.00;1.00;;;;;20.56;96.02;101654.22;5094063;27;45363;-76
2023/08/09 07:46:42;;;;;;;;;2.00;2.00;;;;;20.55;98.02;101644.47;5093251;27;45494;-76
2023/08/09 07:49:07;;;;;;;;;1.00;1.00;;;;;20.54;97.07;101632.84;5090325;27;45496;-76
2023/08/09 07:51:33;;;;;;;;;0.00;0.00;;;;;20.73;95.13;101651.13;5099396;27;45355;-76
2023/08/09 07:53:59;;;;;;;;;1.00;1.00;;;;;20.87;96.13;101642.88;5083010;27;45456;-75
2023/08/09 07:56:24;;;;;;;;;2.00;1.00;;;;;20.96;91.83;101635.91;5069232;27;45414;-75
2023/08/09 07:58:50;;;;;;;;;0.33;0.33;;;;;21.06;90.64;101640.47;5090465;27;46140;-75
2023/08/09 08:01:15;;;;;;;;;1.00;1.00;;;;;21.12;92.11;101642.72;5077395;27;45428;-76
2023/08/09 08:03:41;;;;;;;;;1.00;1.00;;;;;21.29;91.74;101644.09;5085305;27;45748;-75
2023/08/09 08:06:06;;;;;;;;;0.67;0.67;;;;;21.42;92.79;101661.00;5091814;27;45335;-76
2023/08/09 08:08:31;;;;;;;;;1.00;1.00;;;;;21.43;89.96;101638.47;5085389;27;46433;-76
2023/08/09 08:10:57;;;;;;;;;1.00;1.00;;;;;21.37;88.96;101641.63;5088723;27;45399;-76
2023/08/09 08:13:23;;;;;;;;;0.00;0.00;;;;;21.35;89.85;101659.75;5076193;27;45618;-76
2023/08/09 08:15:50;;;;;;;;;0.00;0.00;;;;;21.12;88.33;101637.34;5092839;27;45307;-76
2023/08/09 08:18:15;;;;;;;;;1.00;1.00;;;;;21.22;91.86;101664.38;5073730;27;45415;-76
2023/08/09 08:20:41;;;;;;;;;0.67;0.67;;;;;21.18;93.37;101650.31;5085036;27;45375;-76
2023/08/09 08:23:06;;;;;;;;;1.67;1.00;;;;;21.34;89.22;101654.47;5090634;27;45787;-75
2023/08/09 08:25:31;;;;;;;;;0.00;0.00;;;;;21.50;91.38;101649.63;5089546;27;45284;-76
2023/08/09 08:27:57;;;;;;;;;0.00;0.00;;;;;21.64;87.07;101647.53;5099639;27;45387;-76
2023/08/09 08:30:22;;;;;;;;;0.00;0.00;;;;;21.72;87.89;101657.69;5070639;27;45437;-75
2023/08/09 08:32:49;;;;;;;;;0.00;0.00;;;;;21.83;86.03;101671.13;5085515;27;45438;-76
2023/08/09 08:35:20;;;;;;;;;0.00;0.00;;;;;21.90;86.28;101666.16;5087558;27;45711;-76
2023/08/09 08:37:46;;;;;;;;;0.33;0.33;;;;;22.06;87.89;101672.00;5088328;27;45415;-76
2023/08/09 08:40:19;;;;;;;;;0.00;0.00;;;;;22.05;85.17;101659.53;5100258;27;45385;-75
2023/08/09 08:42:46;;;;;;;;;0.33;0.33;;;;;22.18;83.56;101671.88;5093624;27;45304;-75
2023/08/09 08:45:12;;;;;;;;;0.00;0.00;;;;;22.26;85.47;101677.47;5081284;27;45363;-75
2023/08/09 08:47:39;;;;;;;;;1.67;0.00;;;;;22.54;82.47;101676.06;5089195;27;45551;-76
2023/08/09 08:50:06;;;;;;;;;0.00;0.00;;;;;22.57;80.52;101683.91;5090349;27;45430;-75
2023/08/09 08:52:33;;;;;;;;;0.00;0.00;;;;;22.57;80.41;101662.31;5090499;27;45820;-75
2023/08/09 08:54:59;;;;;;;;;0.00;0.00;;;;;22.59;80.17;101672.97;5097782;27;45450;-75
2023/08/09 08:57:26;;;;;;;;;2.00;0.00;;;;;22.55;81.13;101682.28;5083665;27;45590;-75
2023/08/09 08:59:52;;;;;;;;;0.00;0.00;;;;;22.47;81.36;101691.03;5094193;27;45525;-74
2023/08/09 09:02:19;;;;;;;;;0.00;0.00;;;;;22.32;80.26;101682.34;5094938;27;45394;-76
2023/08/09 09:04:44;;;;;;;;;0.00;0.00;;;;;22.32;80.64;101686.88;5074056;27;45369;-75
2023/08/09 09:07:11;;;;;;;;;0.00;0.00;;;;;22.43;77.99;101696.78;5108573;27;45445;-75
2023/08/09 09:09:43;;;;;;;;;0.00;0.00;;;;;22.53;77.72;101686.97;5091806;27;45309;-75
2023/08/09 09:12:08;;;;;;;;;0.33;0.00;;;;;22.71;79.60;101699.78;5098541;27;45342;-75
2023/08/09 09:14:34;;;;;;;;;0.00;0.00;;;;;22.93;76.93;101698.00;5097200;27;51653;-75
2023/08/09 09:16:59;;;;;;;;;1.00;1.00;;;;;22.98;76.86;101687.66;5079561;27;46820;-75
2023/08/09 09:19:24;;;;;;;;;0.00;0.00;;;;;23.06;77.12;101690.56;5094032;27;45423;-75
2023/08/09 09:21:51;;;;;;;;;0.67;0.67;;;;;23.06;74.51;101688.72;5089189;27;45440;-75
2023/08/09 09:24:20;;;;;;;;;0.00;0.00;;;;;23.14;78.56;101697.00;5082214;27;45322;-75
2023/08/09 09:26:53;;;;;;;;;0.00;0.00;;;;;23.04;72.98;101692.53;5090889;27;45405;-75
2023/08/09 09:29:18;;;;;;;;;0.00;0.00;;;;;23.05;72.29;101705.91;5094325;27;45363;-75
2023/08/09 09:31:44;;;;;;;;;0.00;0.00;;;;;22.90;75.87;101701.81;5074401;27;45360;-75
2023/08/09 09:34:09;;;;;;;;;0.00;0.00;;;;;22.86;74.99;101694.97;5082795;27;45524;-75
2023/08/09 09:36:39;;;;;;;;;0.33;0.33;;;;;22.86;77.11;101704.88;5077437;27;46989;-75
2023/08/09 09:39:09;;;;;;;;;0.00;0.00;;;;;22.86;76.62;101711.16;5091904;27;46133;-75
2023/08/09 09:41:35;;;;;;;;;1.00;1.00;;;;;22.82;73.19;101709.69;5083456;27;45497;-75
2023/08/09 09:44:02;;;;;;;;;2.00;1.00;;;;;22.74;76.09;101696.00;5085244;27;45356;-75
2023/08/09 09:46:28;;;;;;;;;1.00;1.00;;;;;22.79;74.97;101693.75;5083351;27;45518;-75
2023/08/09 09:49:01;;;;;;;;;0.00;0.00;;;;;22.88;74.68;101694.81;5087221;27;45527;-75
2023/08/09 09:51:26;;;;;;;;;0.67;0.67;;;;;;;;5086196;27;45535;-75
2023/08/09 09:53:52;;;;;;;;;0.00;0.00;;;;;23.07;77.04;101709.31;5087751;27;45514;-75
2023/08/09 09:56:17;;;;;;;;;0.67;0.33;;;;;23.16;75.98;101686.97;5092179;27;45442;-75
2023/08/09 09:58:43;;;;;;;;;1.00;1.00;;;;;23.33;74.26;101709.78;5075085;27;45330;-75
2023/08/09 10:01:23;;;;;;;;;0.67;0.67;;;;;23.33;75.76;101691.75;5072894;28;45544;-75
2023/08/09 10:03:53;;;;;;;;;0.33;0.33;;;;;23.39;74.92;101687.66;5084678;27;45427;-75
2023/08/09 10:06:27;;;;;;;;;0.33;0.33;;;;;23.47;76.44;101709.47;5070883;28;47158;-75
2023/08/09 10:08:56;;;;;;;;;0.33;0.33;;;;;23.41;72.17;101701.91;5094905;27;45457;-75
2023/08/09 10:11:23;;;;;;;;;1.00;1.00;;;;;23.36;72.33;101698.75;5086225;27;45375;-75
2023/08/09 10:13:51;;;;;;;;;2.00;0.00;;;;;23.26;69.78;101705.91;5065037;27;45543;-75
2023/08/09 10:16:21;;;;;;;;;1.00;1.00;;;;;23.24;70.32;101697.06;5081298;27;45446;-75
2023/08/09 10:18:52;;;;;;;;;1.00;1.00;;;;;23.28;72.32;101699.38;5090784;27;45324;-75
2023/08/09 10:21:19;;;;;;;;;2.00;1.00;;;;;23.43;73.01;101708.03;5083796;27;45465;-75
2023/08/09 10:24:08;;;;;;;;;1.00;1.00;;;;;23.49;71.98;101712.06;5072554;27;45486;-74
2023/08/09 10:26:36;;;;;;;;;0.00;0.00;;;;;23.62;72.95;101699.19;5086544;27;46454;-74
2023/08/09 10:29:10;;;;;;;;;0.00;0.00;;;;;23.83;72.19;101713.50;5086892;27;45402;-74
2023/08/09 10:31:49;;;;;;;;;0.00;0.00;;;;;23.83;70.72;101708.97;5074690;27;45511;-74
2023/08/09 10:34:37;;;;;;;;;1.00;1.00;;;;;23.78;73.50;101710.38;5092383;27;45550;-73
2023/08/09 10:37:04;;;;;;;;;0.33;0.33;;;;;23.78;73.49;101713.94;5076430;27;46481;-73
2023/08/09 10:39:31;;;;;;;;;1.33;1.00;;;;;23.71;70.69;101714.59;5086330;27;45399;-74
2023/08/09 10:42:11;;;;;;;;;1.00;1.00;;;;;23.46;71.39;101699.66;5061751;28;45439;-74
2023/08/09 10:44:42;;;;;;;;;0.33;0.33;;;;;23.41;71.27;101723.50;5083668;27;45312;-74
2023/08/09 10:47:21;;;;;;;;;0.67;0.67;;;;;23.33;72.10;101720.56;5081476;27;46150;-74
2023/08/09 10:49:49;;;;;;;;;1.67;1.00;;;;;23.31;72.56;101725.25;5079480;27;45437;-74
2023/08/09 10:52:19;;;;;;;;;0.00;0.00;;;;;23.33;74.46;101724.13;5087623;27;45557;-74
2023/08/09 10:54:45;;;;;;;;;1.00;1.00;;;;;23.41;73.88;101726.22;5081148;27;45353;-74
2023/08/09 10:57:12;;;;;;;;;1.33;1.33;;;;;23.50;77.64;101732.66;5097002;27;45424;-74
2023/08/09 10:59:39;;;;;;;;;1.00;1.00;;;;;23.60;77.48;101734.44;5068493;27;45299;-74
2023/08/09 11:02:06;;;;;;;;;1.00;1.00;;;;;23.88;72.54;101737.44;5099843;27;45300;-75
2023/08/09 11:04:32;;;;;;;;;1.00;1.00;;;;;24.15;71.38;101735.84;5083789;27;45293;-74
2023/08/09 11:06:58;;;;;;;;;1.00;1.00;;;;;24.24;70.72;101732.34;5070784;27;45370;-74
2023/08/09 11:09:24;;;;;;;;;1.00;1.00;;;;;24.38;71.52;101732.94;5089080;27;45373;-76
2023/08/09 11:11:51;;;;;;;;;1.67;1.00;;;;;24.35;69.08;101736.75;5085055;28;45300;-76
2023/08/09 11:14:19;;;;;;;;;2.00;2.00;;;;;24.28;68.50;101722.94;5084104;27;45400;-76
2023/08/09 11:16:45;;;;;;;;;0.67;0.67;;;;;24.48;67.94;101722.97;5075416;27;47267;-76
2023/08/09 11:19:16;;;;;;;;;1.00;1.00;;;;;24.83;66.65;101724.22;5099003;27;45219;-76